sensor_id;sensor_type;location;lat;lon;timestamp;pressure;altitude;pressure_sealevel;temperature;humidity
18987;BME280;9627;59.236;18.142;2022-07-10T00:00:17;100531.28;;;12.66;100.00
18987;BME280;9627;59.236;18.142;2022-07-10T00:02:46;100525.53;;;12.63;100.00
18987;BME280;9627;59.236;18.142;2022-07-10T00:05:12;100524.72;;;12.62;100.00
18987;BME280;9627;59.236;18.142;2022-07-10T00:07:39;100535.59;;;12.67;100.00
18987;BME280;9627;59.236;18.142;2022-07-10T00:10:05;100529.88;;;12.64;100.00
18987;BME280;9627;59.236;18.142;2022-07-10T00:12:32;100536.84;;;12.71;100.00
18987;BME280;9627;59.236;18.142;2022-07-10T00:14:59;100524.72;;;12.62;100.00
18987;BME280;9627;59.236;18.142;2022-07-10T00:17:27;100533.72;;;12.55;100.00
18987;BME280;9627;59.236;18.142;2022-07-10T00:19:54;100529.00;;;12.50;100.00
18987;BME280;9627;59.236;18.142;2022-07-10T00:22:21;100523.44;;;12.45;100.00
18987;BME280;9627;59.236;18.142;2022-07-10T00:24:47;100525.50;;;12.43;100.00
18987;BME280;9627;59.236;18.142;2022-07-10T00:27:15;100523.84;;;12.36;100.00
18987;BME280;9627;59.236;18.142;2022-07-10T00:29:42;100513.19;;;12.29;100.00
18987;BME280;9627;59.236;18.142;2022-07-10T00:32:10;100525.03;;;12.27;100.00
18987;BME280;9627;59.236;18.142;2022-07-10T00:34:38;100523.00;;;12.22;100.00
18987;BME280;9627;59.236;18.142;2022-07-10T00:37:05;100522.38;;;12.20;100.00
18987;BME280;9627;59.236;18.142;2022-07-10T00:39:31;100519.09;;;12.18;100.00
18987;BME280;9627;59.236;18.142;2022-07-10T00:42:05;100515.59;;;12.18;100.00
18987;BME280;9627;59.236;18.142;2022-07-10T00:44:32;100509.66;;;12.16;100.00
18987;BME280;9627;59.236;18.142;2022-07-10T00:46:59;100516.41;;;12.11;100.00
18987;BME280;9627;59.236;18.142;2022-07-10T00:49:25;100517.22;;;12.12;100.00
18987;BME280;9627;59.236;18.142;2022-07-10T00:51:54;100509.44;;;12.17;100.00
18987;BME280;9627;59.236;18.142;2022-07-10T00:54:21;100516.41;;;12.11;100.00
18987;BME280;9627;59.236;18.142;2022-07-10T00:56:48;100507.56;;;12.04;100.00
18987;BME280;9627;59.236;18.142;2022-07-10T00:59:14;100515.31;;;11.99;100.00
18987;BME280;9627;59.236;18.142;2022-07-10T01:01:42;100512.84;;;11.91;100.00
18987;BME280;9627;59.236;18.142;2022-07-10T01:04:08;100518.94;;;11.85;100.00
18987;BME280;9627;59.236;18.142;2022-07-10T01:06:35;100523.22;;;11.80;100.00
18987;BME280;9627;59.236;18.142;2022-07-10T01:09:03;100512.56;;;11.80;100.00
18987;BME280;9627;59.236;18.142;2022-07-10T01:11:30;100520.94;;;11.77;100.00
18987;BME280;9627;59.236;18.142;2022-07-10T01:13:59;100516.78;;;11.68;100.00
18987;BME280;9627;59.236;18.142;2022-07-10T01:16:26;100512.84;;;11.64;100.00
18987;BME280;9627;59.236;18.142;2022-07-10T01:18:54;100513.63;;;11.58;100.00
18987;BME280;9627;59.236;18.142;2022-07-10T01:21:25;100525.28;;;11.57;100.00
18987;BME280;9627;59.236;18.142;2022-07-10T01:23:52;100528.81;;;11.64;100.00
18987;BME280;9627;59.236;18.142;2022-07-10T01:26:19;100522.50;;;11.65;100.00
18987;BME280;9627;59.236;18.142;2022-07-10T01:28:48;100532.50;;;11.63;100.00
18987;BME280;9627;59.236;18.142;2022-07-10T01:31:16;100537.59;;;11.64;100.00
18987;BME280;9627;59.236;18.142;2022-07-10T01:33:42;100534.69;;;11.59;100.00
18987;BME280;9627;59.236;18.142;2022-07-10T01:36:09;100532.94;;;11.66;100.00
18987;BME280;9627;59.236;18.142;2022-07-10T01:38:38;100527.81;;;11.65;100.00
18987;BME280;9627;59.236;18.142;2022-07-10T01:41:04;100542.31;;;11.62;100.00
18987;BME280;9627;59.236;18.142;2022-07-10T01:43:31;100531.63;;;11.56;100.00
18987;BME280;9627;59.236;18.142;2022-07-10T01:45:58;100535.31;;;11.55;100.00
18987;BME280;9627;59.236;18.142;2022-07-10T01:48:24;100543.41;;;11.47;100.00
18987;BME280;9627;59.236;18.142;2022-07-10T01:50:50;100541.97;;;11.44;100.00
18987;BME280;9627;59.236;18.142;2022-07-10T01:53:17;100542.78;;;11.45;100.00
18987;BME280;9627;59.236;18.142;2022-07-10T01:55:45;100537.53;;;11.51;100.00
18987;BME280;9627;59.236;18.142;2022-07-10T01:58:12;100542.44;;;11.54;100.00
18987;BME280;9627;59.236;18.142;2022-07-10T02:00:38;100539.34;;;11.51;100.00
18987;BME280;9627;59.236;18.142;2022-07-10T02:03:05;100536.69;;;11.51;100.00
18987;BME280;9627;59.236;18.142;2022-07-10T02:05:49;100528.72;;;11.51;100.00
18987;BME280;9627;59.236;18.142;2022-07-10T02:08:15;100528.81;;;11.64;100.00
18987;BME280;9627;59.236;18.142;2022-07-10T02:10:41;100535.53;;;11.60;100.00
18987;BME280;9627;59.236;18.142;2022-07-10T02:13:11;100533.50;;;11.62;100.00
18987;BME280;9627;59.236;18.142;2022-07-10T02:15:39;100525.97;;;11.65;100.00
18987;BME280;9627;59.236;18.142;2022-07-10T02:18:06;100524.38;;;11.71;100.00
18987;BME280;9627;59.236;18.142;2022-07-10T02:20:33;100529.63;;;11.64;100.00
18987;BME280;9627;59.236;18.142;2022-07-10T02:23:00;100535.53;;;11.60;100.00
18987;BME280;9627;59.236;18.142;2022-07-10T02:25:27;100533.91;;;11.59;100.00
18987;BME280;9627;59.236;18.142;2022-07-10T02:27:54;100531.25;;;11.59;100.00
18987;BME280;9627;59.236;18.142;2022-07-10T02:30:22;100520.28;;;11.68;100.00
18987;BME280;9627;59.236;18.142;2022-07-10T02:32:49;100529.06;;;11.69;100.00
18987;BME280;9627;59.236;18.142;2022-07-10T02:35:16;100518.91;;;11.79;100.00
18987;BME280;9627;59.236;18.142;2022-07-10T02:37:43;100521.66;;;11.98;100.00
18987;BME280;9627;59.236;18.142;2022-07-10T02:40:09;100528.91;;;12.18;100.00
18987;BME280;9627;59.236;18.142;2022-07-10T02:42:36;100524.22;;;12.26;100.00
18987;BME280;9627;59.236;18.142;2022-07-10T02:45:03;100520.16;;;12.37;100.00
18987;BME280;9627;59.236;18.142;2022-07-10T02:47:31;100520.00;;;12.51;100.00
18987;BME280;9627;59.236;18.142;2022-07-10T02:49:58;100519.44;;;12.88;100.00
18987;BME280;9627;59.236;18.142;2022-07-10T02:52:25;100518.28;;;13.04;100.00
18987;BME280;9627;59.236;18.142;2022-07-10T02:54:51;100525.00;;;13.00;100.00
18987;BME280;9627;59.236;18.142;2022-07-10T02:57:18;100522.72;;;12.97;100.00
18987;BME280;9627;59.236;18.142;2022-07-10T02:59:44;100518.22;;;12.97;100.00
18987;BME280;9627;59.236;18.142;2022-07-10T03:02:11;100517.44;;;13.03;100.00
18987;BME280;9627;59.236;18.142;2022-07-10T03:04:39;100518.63;;;13.01;100.00
18987;BME280;9627;59.236;18.142;2022-07-10T03:07:06;100517.00;;;12.87;100.00
18987;BME280;9627;59.236;18.142;2022-07-10T03:09:33;100526.41;;;12.76;100.00
18987;BME280;9627;59.236;18.142;2022-07-10T03:12:00;100527.00;;;12.65;100.00
18987;BME280;9627;59.236;18.142;2022-07-10T03:14:26;100524.31;;;12.52;100.00
18987;BME280;9627;59.236;18.142;2022-07-10T03:16:53;100517.72;;;12.35;100.00
18987;BME280;9627;59.236;18.142;2022-07-10T03:19:19;100522.78;;;12.30;100.00
18987;BME280;9627;59.236;18.142;2022-07-10T03:21:48;100520.75;;;12.32;100.00
18987;BME280;9627;59.236;18.142;2022-07-10T03:24:14;100524.25;;;12.33;100.00
18987;BME280;9627;59.236;18.142;2022-07-10T03:26:41;100528.03;;;12.71;100.00
18987;BME280;9627;59.236;18.142;2022-07-10T03:29:07;100530.50;;;12.98;100.00
18987;BME280;9627;59.236;18.142;2022-07-10T03:31:34;100520.06;;;12.97;100.00
18987;BME280;9627;59.236;18.142;2022-07-10T03:34:01;100532.16;;;12.86;100.00
18987;BME280;9627;59.236;18.142;2022-07-10T03:36:28;100528.25;;;12.82;100.00
18987;BME280;9627;59.236;18.142;2022-07-10T03:38:56;100538.25;;;12.74;100.00
18987;BME280;9627;59.236;18.142;2022-07-10T03:41:23;100521.03;;;12.57;100.00
18987;BME280;9627;59.236;18.142;2022-07-10T03:43:49;100531.66;;;12.44;100.00
18987;BME280;9627;59.236;18.142;2022-07-10T03:46:16;100530.78;;;12.30;100.00
18987;BME280;9627;59.236;18.142;2022-07-10T03:48:43;100535.28;;;12.23;100.00
18987;BME280;9627;59.236;18.142;2022-07-10T03:51:09;100533.41;;;12.17;100.00
18987;BME280;9627;59.236;18.142;2022-07-10T03:53:36;100524.16;;;12.13;100.00
18987;BME280;9627;59.236;18.142;2022-07-10T03:56:04;100536.25;;;12.16;100.00
18987;BME280;9627;59.236;18.142;2022-07-10T03:58:31;100540.59;;;12.23;100.00
18987;BME280;9627;59.236;18.142;2022-07-10T04:00:56;100538.88;;;12.56;100.00
18987;BME280;9627;59.236;18.142;2022-07-10T04:03:23;100539.16;;;13.33;100.00
18987;BME280;9627;59.236;18.142;2022-07-10T04:05:50;100538.94;;;14.62;100.00
18987;BME280;9627;59.236;18.142;2022-07-10T04:08:16;100539.22;;;15.84;100.00
18987;BME280;9627;59.236;18.142;2022-07-10T04:10:43;100536.16;;;15.99;100.00
18987;BME280;9627;59.236;18.142;2022-07-10T04:13:11;100526.84;;;16.19;100.00
18987;BME280;9627;59.236;18.142;2022-07-10T04:15:37;100539.97;;;16.57;100.00
18987;BME280;9627;59.236;18.142;2022-07-10T04:18:04;100535.59;;;17.15;100.00
18987;BME280;9627;59.236;18.142;2022-07-10T04:20:31;100540.03;;;17.68;100.00
18987;BME280;9627;59.236;18.142;2022-07-10T04:22:57;100543.03;;;18.06;100.00
18987;BME280;9627;59.236;18.142;2022-07-10T04:25:24;100542.84;;;18.92;100.00
18987;BME280;9627;59.236;18.142;2022-07-10T04:27:51;100547.56;;;20.06;100.00
18987;BME280;9627;59.236;18.142;2022-07-10T04:30:18;100549.13;;;20.18;100.00
18987;BME280;9627;59.236;18.142;2022-07-10T04:32:45;100549.25;;;20.28;100.00
18987;BME280;9627;59.236;18.142;2022-07-10T04:35:12;100554.38;;;21.05;100.00
18987;BME280;9627;59.236;18.142;2022-07-10T04:37:38;100543.38;;;22.52;100.00
18987;BME280;9627;59.236;18.142;2022-07-10T04:40:06;100542.13;;;23.15;100.00
18987;BME280;9627;59.236;18.142;2022-07-10T04:42:33;100543.47;;;23.12;100.00
18987;BME280;9627;59.236;18.142;2022-07-10T04:44:59;100542.00;;;22.49;100.00
18987;BME280;9627;59.236;18.142;2022-07-10T04:47:28;100544.97;;;21.44;100.00
18987;BME280;9627;59.236;18.142;2022-07-10T04:49:55;100545.59;;;20.40;100.00
18987;BME280;9627;59.236;18.142;2022-07-10T04:52:21;100557.03;;;20.08;100.00
18987;BME280;9627;59.236;18.142;2022-07-10T04:54:48;100559.25;;;20.55;100.00
18987;BME280;9627;59.236;18.142;2022-07-10T04:57:15;100553.84;;;20.33;100.00
18987;BME280;9627;59.236;18.142;2022-07-10T04:59:41;100551.84;;;20.23;100.00
18987;BME280;9627;59.236;18.142;2022-07-10T05:02:08;100555.53;;;20.61;100.00
18987;BME280;9627;59.236;18.142;2022-07-10T05:04:36;100560.53;;;21.69;100.00
18987;BME280;9627;59.236;18.142;2022-07-10T05:07:03;100563.81;;;23.15;100.00
18987;BME280;9627;59.236;18.142;2022-07-10T05:09:30;100574.44;;;24.35;100.00
18987;BME280;9627;59.236;18.142;2022-07-10T05:11:57;100558.44;;;26.31;100.00
18987;BME280;9627;59.236;18.142;2022-07-10T05:14:23;100555.09;;;25.01;100.00
18987;BME280;9627;59.236;18.142;2022-07-10T05:16:50;100561.88;;;23.65;100.00
18987;BME280;9627;59.236;18.142;2022-07-10T05:19:17;100565.16;;;23.42;100.00
18987;BME280;9627;59.236;18.142;2022-07-10T05:21:46;100564.28;;;25.72;100.00
18987;BME280;9627;59.236;18.142;2022-07-10T05:24:13;100553.91;;;25.98;100.00
18987;BME280;9627;59.236;18.142;2022-07-10T05:26:39;100553.47;;;23.77;100.00
18987;BME280;9627;59.236;18.142;2022-07-10T05:29:06;100558.50;;;21.86;100.00
18987;BME280;9627;59.236;18.142;2022-07-10T05:31:33;100558.66;;;20.74;100.00
18987;BME280;9627;59.236;18.142;2022-07-10T05:33:59;100555.94;;;19.88;100.00
18987;BME280;9627;59.236;18.142;2022-07-10T05:36:26;100563.28;;;19.37;100.00
18987;BME280;9627;59.236;18.142;2022-07-10T05:38:54;100565.41;;;18.91;100.00
18987;BME280;9627;59.236;18.142;2022-07-10T05:41:21;100574.13;;;18.53;100.00
18987;BME280;9627;59.236;18.142;2022-07-10T05:43:48;100576.28;;;18.28;100.00
18987;BME280;9627;59.236;18.142;2022-07-10T05:46:14;100574.06;;;18.13;100.00
18987;BME280;9627;59.236;18.142;2022-07-10T05:48:41;100575.97;;;18.01;100.00
18987;BME280;9627;59.236;18.142;2022-07-10T05:51:08;100574.91;;;18.02;100.00
18987;BME280;9627;59.236;18.142;2022-07-10T05:53:34;100575.19;;;17.78;100.00
18987;BME280;9627;59.236;18.142;2022-07-10T05:56:02;100576.75;;;18.13;100.00
18987;BME280;9627;59.236;18.142;2022-07-10T05:58:29;100575.78;;;18.31;100.00
18987;BME280;9627;59.236;18.142;2022-07-10T06:00:56;100581.03;;;18.49;100.00
18987;BME280;9627;59.236;18.142;2022-07-10T06:03:22;100580.47;;;18.47;100.00
18987;BME280;9627;59.236;18.142;2022-07-10T06:05:49;100580.41;;;18.59;100.00
18987;BME280;9627;59.236;18.142;2022-07-10T06:08:16;100582.16;;;18.65;100.00
18987;BME280;9627;59.236;18.142;2022-07-10T06:10:42;100583.81;;;19.27;100.00
18987;BME280;9627;59.236;18.142;2022-07-10T06:13:12;100576.41;;;19.34;100.00
18987;BME280;9627;59.236;18.142;2022-07-10T06:15:38;100584.38;;;19.62;100.00
18987;BME280;9627;59.236;18.142;2022-07-10T06:18:05;100584.13;;;19.80;100.00
18987;BME280;9627;59.236;18.142;2022-07-10T06:20:32;100577.44;;;20.04;100.00
18987;BME280;9627;59.236;18.142;2022-07-10T06:22:58;100579.09;;;19.67;100.00
18987;BME280;9627;59.236;18.142;2022-07-10T06:25:25;100588.81;;;19.35;100.00
18987;BME280;9627;59.236;18.142;2022-07-10T06:27:52;100585.88;;;19.53;100.00
18987;BME280;9627;59.236;18.142;2022-07-10T06:30:20;100584.38;;;20.17;100.00
18987;BME280;9627;59.236;18.142;2022-07-10T06:32:47;100589.22;;;21.43;100.00
18987;BME280;9627;59.236;18.142;2022-07-10T06:35:13;100595.06;;;21.30;100.00
18987;BME280;9627;59.236;18.142;2022-07-10T06:37:40;100595.91;;;22.04;100.00
18987;BME280;9627;59.236;18.142;2022-07-10T06:40:09;100588.06;;;22.69;100.00
18987;BME280;9627;59.236;18.142;2022-07-10T06:42:36;100589.88;;;22.49;100.00
18987;BME280;9627;59.236;18.142;2022-07-10T06:45:03;100598.09;;;22.74;100.00
18987;BME280;9627;59.236;18.142;2022-07-10T06:47:31;100587.84;;;24.07;100.00
18987;BME280;9627;59.236;18.142;2022-07-10T06:50:16;100593.50;;;24.79;100.00
18987;BME280;9627;59.236;18.142;2022-07-10T06:52:42;100593.41;;;25.33;100.00
18987;BME280;9627;59.236;18.142;2022-07-10T06:55:09;100597.78;;;24.36;100.00
18987;BME280;9627;59.236;18.142;2022-07-10T06:57:37;100597.91;;;24.60;100.00
18987;BME280;9627;59.236;18.142;2022-07-10T07:00:04;100588.56;;;25.87;100.00
18987;BME280;9627;59.236;18.142;2022-07-10T07:02:33;100592.97;;;27.47;100.00
18987;BME280;9627;59.236;18.142;2022-07-10T07:05:00;100589.53;;;27.87;100.00
18987;BME280;9627;59.236;18.142;2022-07-10T07:07:26;100590.94;;;27.39;100.00
18987;BME280;9627;59.236;18.142;2022-07-10T07:09:52;100586.56;;;27.19;100.00
18987;BME280;9627;59.236;18.142;2022-07-10T07:12:19;100593.03;;;26.49;100.00
18987;BME280;9627;59.236;18.142;2022-07-10T07:14:46;100591.03;;;25.60;100.00
18987;BME280;9627;59.236;18.142;2022-07-10T07:17:13;100597.47;;;24.97;100.00
18987;BME280;9627;59.236;18.142;2022-07-10T07:19:48;100599.72;;;24.84;100.00
18987;BME280;9627;59.236;18.142;2022-07-10T07:22:32;100598.94;;;24.10;100.00
18987;BME280;9627;59.236;18.142;2022-07-10T07:25:16;100603.22;;;24.26;100.00
18987;BME280;9627;59.236;18.142;2022-07-10T07:27:43;100596.38;;;24.39;100.00
18987;BME280;9627;59.236;18.142;2022-07-10T07:30:10;100594.16;;;24.51;100.00
18987;BME280;9627;59.236;18.142;2022-07-10T07:32:39;100599.53;;;24.02;100.00
18987;BME280;9627;59.236;18.142;2022-07-10T07:35:09;100607.13;;;24.74;100.00
18987;BME280;9627;59.236;18.142;2022-07-10T07:37:37;100592.00;;;25.98;100.00
18987;BME280;9627;59.236;18.142;2022-07-10T07:40:04;100597.81;;;26.57;100.00
18987;BME280;9627;59.236;18.142;2022-07-10T07:42:31;100596.25;;;25.51;100.00
18987;BME280;9627;59.236;18.142;2022-07-10T07:44:58;100589.88;;;26.60;100.00
18987;BME280;9627;59.236;18.142;2022-07-10T07:47:25;100594.91;;;28.06;100.00
18987;BME280;9627;59.236;18.142;2022-07-10T07:49:51;100591.00;;;28.88;100.00
18987;BME280;9627;59.236;18.142;2022-07-10T07:52:20;100585.38;;;29.73;100.00
18987;BME280;9627;59.236;18.142;2022-07-10T07:54:47;100586.91;;;29.66;100.00
18987;BME280;9627;59.236;18.142;2022-07-10T07:57:14;100580.84;;;30.81;100.00
18987;BME280;9627;59.236;18.142;2022-07-10T07:59:41;100575.84;;;29.71;97.06
18987;BME280;9627;59.236;18.142;2022-07-10T08:02:07;100591.44;;;29.48;100.00
18987;BME280;9627;59.236;18.142;2022-07-10T08:04:34;100590.72;;;28.76;100.00
18987;BME280;9627;59.236;18.142;2022-07-10T08:07:00;100588.59;;;27.65;100.00
18987;BME280;9627;59.236;18.142;2022-07-10T08:09:29;100583.00;;;25.45;100.00
18987;BME280;9627;59.236;18.142;2022-07-10T08:11:55;100595.84;;;24.42;100.00
18987;BME280;9627;59.236;18.142;2022-07-10T08:14:22;100598.75;;;23.31;100.00
18987;BME280;9627;59.236;18.142;2022-07-10T08:16:48;100594.69;;;25.45;100.00
18987;BME280;9627;59.236;18.142;2022-07-10T08:19:16;100600.28;;;26.77;100.00
18987;BME280;9627;59.236;18.142;2022-07-10T08:21:42;100597.69;;;28.82;100.00
18987;BME280;9627;59.236;18.142;2022-07-10T08:24:09;100595.41;;;28.98;96.86
18987;BME280;9627;59.236;18.142;2022-07-10T08:26:38;100590.91;;;27.85;99.26
18987;BME280;9627;59.236;18.142;2022-07-10T08:29:04;100592.31;;;26.62;100.00
18987;BME280;9627;59.236;18.142;2022-07-10T08:31:31;100598.19;;;24.63;100.00
18987;BME280;9627;59.236;18.142;2022-07-10T08:33:58;100609.28;;;23.83;100.00
18987;BME280;9627;59.236;18.142;2022-07-10T08:36:25;100608.97;;;23.09;100.00
18987;BME280;9627;59.236;18.142;2022-07-10T08:38:51;100613.13;;;22.45;100.00
18987;BME280;9627;59.236;18.142;2022-07-10T08:41:19;100621.53;;;21.96;100.00
18987;BME280;9627;59.236;18.142;2022-07-10T08:43:48;100616.44;;;21.05;100.00
18987;BME280;9627;59.236;18.142;2022-07-10T08:46:15;100621.06;;;20.88;100.00
18987;BME280;9627;59.236;18.142;2022-07-10T08:48:44;100620.56;;;20.43;100.00
18987;BME280;9627;59.236;18.142;2022-07-10T08:51:13;100627.25;;;20.18;100.00
18987;BME280;9627;59.236;18.142;2022-07-10T08:53:47;100626.81;;;19.72;100.00
18987;BME280;9627;59.236;18.142;2022-07-10T08:56:15;100623.97;;;19.78;100.00
18987;BME280;9627;59.236;18.142;2022-07-10T08:58:42;100631.44;;;19.43;100.00
18987;BME280;9627;59.236;18.142;2022-07-10T09:01:10;100628.47;;;19.56;100.00
18987;BME280;9627;59.236;18.142;2022-07-10T09:03:37;100632.28;;;19.77;100.00
18987;BME280;9627;59.236;18.142;2022-07-10T09:06:04;100631.63;;;19.70;100.00
18987;BME280;9627;59.236;18.142;2022-07-10T09:08:32;100636.03;;;19.59;100.00
18987;BME280;9627;59.236;18.142;2022-07-10T09:11:12;100636.44;;;19.51;100.00
18987;BME280;9627;59.236;18.142;2022-07-10T09:13:48;100631.63;;;19.53;100.00
18987;BME280;9627;59.236;18.142;2022-07-10T09:16:21;100639.41;;;19.21;100.00
18987;BME280;9627;59.236;18.142;2022-07-10T09:18:48;100641.00;;;19.06;100.00
18987;BME280;9627;59.236;18.142;2022-07-10T09:21:14;100646.84;;;18.75;100.00
18987;BME280;9627;59.236;18.142;2022-07-10T09:23:41;100642.69;;;18.95;100.00
18987;BME280;9627;59.236;18.142;2022-07-10T09:26:08;100648.94;;;18.84;100.00
18987;BME280;9627;59.236;18.142;2022-07-10T09:28:34;100653.59;;;18.61;100.00
18987;BME280;9627;59.236;18.142;2022-07-10T09:31:01;100654.66;;;18.25;100.00
18987;BME280;9627;59.236;18.142;2022-07-10T09:33:29;100659.09;;;18.42;100.00
18987;BME280;9627;59.236;18.142;2022-07-10T09:36:00;100658.16;;;18.37;100.00
18987;BME280;9627;59.236;18.142;2022-07-10T09:41:15;100663.97;;;18.57;100.00
18987;BME280;9627;59.236;18.142;2022-07-10T09:43:43;100664.59;;;18.47;100.00
18987;BME280;9627;59.236;18.142;2022-07-10T09:46:11;100666.31;;;18.30;100.00
18987;BME280;9627;59.236;18.142;2022-07-10T09:48:39;100658.16;;;18.37;100.00
18987;BME280;9627;59.236;18.142;2022-07-10T09:51:06;100662.41;;;18.73;100.00
18987;BME280;9627;59.236;18.142;2022-07-10T09:53:34;100658.72;;;18.90;100.00
18987;BME280;9627;59.236;18.142;2022-07-10T09:56:04;100665.22;;;19.06;100.00
18987;BME280;9627;59.236;18.142;2022-07-10T09:58:32;100668.78;;;18.95;100.00
18987;BME280;9627;59.236;18.142;2022-07-10T10:01:01;100665.09;;;19.29;100.00
18987;BME280;9627;59.236;18.142;2022-07-10T10:03:30;100675.97;;;19.34;100.00
18987;BME280;9627;59.236;18.142;2022-07-10T10:06:02;100663.25;;;19.29;100.00
18987;BME280;9627;59.236;18.142;2022-07-10T10:08:29;100663.78;;;19.60;100.00
18987;BME280;9627;59.236;18.142;2022-07-10T10:10:57;100662.38;;;19.74;100.00
18987;BME280;9627;59.236;18.142;2022-07-10T10:13:25;100660.88;;;20.16;100.00
18987;BME280;9627;59.236;18.142;2022-07-10T10:15:52;100664.94;;;20.78;100.00
18987;BME280;9627;59.236;18.142;2022-07-10T10:18:19;100658.34;;;20.91;100.00
18987;BME280;9627;59.236;18.142;2022-07-10T10:20:47;100666.75;;;21.16;100.00
18987;BME280;9627;59.236;18.142;2022-07-10T10:23:15;100657.56;;;21.75;100.00
18987;BME280;9627;59.236;18.142;2022-07-10T10:25:43;100630.47;;;21.65;100.00
18987;BME280;9627;59.236;18.142;2022-07-10T10:28:11;100665.34;;;22.03;100.00
18987;BME280;9627;59.236;18.142;2022-07-10T10:30:39;100662.69;;;22.08;100.00
18987;BME280;9627;59.236;18.142;2022-07-10T10:35:55;100676.16;;;23.17;100.00
18987;BME280;9627;59.236;18.142;2022-07-10T10:38:23;100667.09;;;24.72;100.00
18987;BME280;9627;59.236;18.142;2022-07-10T10:40:50;100670.13;;;26.44;100.00
18987;BME280;9627;59.236;18.142;2022-07-10T10:43:18;100674.28;;;27.91;100.00
18987;BME280;9627;59.236;18.142;2022-07-10T10:45:45;100669.34;;;28.66;100.00
18987;BME280;9627;59.236;18.142;2022-07-10T10:48:12;100670.91;;;28.39;100.00
18987;BME280;9627;59.236;18.142;2022-07-10T10:50:39;100678.78;;;27.49;100.00
18987;BME280;9627;59.236;18.142;2022-07-10T10:53:16;100685.75;;;26.34;100.00
18987;BME280;9627;59.236;18.142;2022-07-10T10:58:37;100680.63;;;25.31;100.00
18987;BME280;9627;59.236;18.142;2022-07-10T11:01:05;100697.38;;;23.75;100.00
18987;BME280;9627;59.236;18.142;2022-07-10T11:03:32;100697.59;;;22.62;100.00
18987;BME280;9627;59.236;18.142;2022-07-10T11:05:58;100704.22;;;22.39;100.00
18987;BME280;9627;59.236;18.142;2022-07-10T11:08:40;100707.25;;;23.10;100.00
18987;BME280;9627;59.236;18.142;2022-07-10T11:13:56;100702.13;;;23.08;100.00
18987;BME280;9627;59.236;18.142;2022-07-10T11:16:23;100698.09;;;24.51;100.00
18987;BME280;9627;59.236;18.142;2022-07-10T11:18:51;100692.34;;;25.22;100.00
18987;BME280;9627;59.236;18.142;2022-07-10T11:21:21;100706.44;;;24.70;100.00
18987;BME280;9627;59.236;18.142;2022-07-10T11:23:51;100703.97;;;25.32;100.00
18987;BME280;9627;59.236;18.142;2022-07-10T11:26:24;100708.84;;;27.07;100.00
18987;BME280;9627;59.236;18.142;2022-07-10T11:28:51;100709.06;;;26.40;100.00
18987;BME280;9627;59.236;18.142;2022-07-10T11:31:20;100713.13;;;26.66;100.00
18987;BME280;9627;59.236;18.142;2022-07-10T11:33:48;100716.69;;;26.90;100.00
18987;BME280;9627;59.236;18.142;2022-07-10T11:36:17;100710.81;;;26.31;100.00
18987;BME280;9627;59.236;18.142;2022-07-10T11:38:44;100711.94;;;26.77;100.00
18987;BME280;9627;59.236;18.142;2022-07-10T11:41:12;100718.34;;;26.62;100.00
18987;BME280;9627;59.236;18.142;2022-07-10T11:43:45;100715.72;;;26.29;100.00
18987;BME280;9627;59.236;18.142;2022-07-10T11:46:11;100719.91;;;25.05;100.00
18987;BME280;9627;59.236;18.142;2022-07-10T11:48:40;100717.38;;;24.50;100.00
18987;BME280;9627;59.236;18.142;2022-07-10T11:51:15;100732.03;;;23.48;100.00
18987;BME280;9627;59.236;18.142;2022-07-10T11:53:42;100736.06;;;23.36;100.00
18987;BME280;9627;59.236;18.142;2022-07-10T11:56:18;100730.19;;;22.82;100.00
18987;BME280;9627;59.236;18.142;2022-07-10T11:58:52;100730.44;;;22.80;100.00
18987;BME280;9627;59.236;18.142;2022-07-10T12:01:19;100729.91;;;22.37;100.00
18987;BME280;9627;59.236;18.142;2022-07-10T12:03:54;100732.44;;;22.11;100.00
18987;BME280;9627;59.236;18.142;2022-07-10T12:06:22;100728.09;;;22.52;100.00
18987;BME280;9627;59.236;18.142;2022-07-10T12:08:49;100724.25;;;21.96;100.00
18987;BME280;9627;59.236;18.142;2022-07-10T12:11:17;100731.94;;;22.20;100.00
18987;BME280;9627;59.236;18.142;2022-07-10T12:13:45;100733.41;;;21.95;100.00
18987;BME280;9627;59.236;18.142;2022-07-10T12:16:12;100739.00;;;22.21;100.00
18987;BME280;9627;59.236;18.142;2022-07-10T12:18:39;100731.53;;;22.38;100.00
18987;BME280;9627;59.236;18.142;2022-07-10T12:21:08;100733.78;;;22.51;100.00
18987;BME280;9627;59.236;18.142;2022-07-10T12:23:35;100734.44;;;22.73;100.00
18987;BME280;9627;59.236;18.142;2022-07-10T12:26:05;100738.25;;;22.77;100.00
18987;BME280;9627;59.236;18.142;2022-07-10T12:28:47;100740.38;;;22.65;100.00
18987;BME280;9627;59.236;18.142;2022-07-10T12:31:19;100745.53;;;22.30;100.00
18987;BME280;9627;59.236;18.142;2022-07-10T12:33:49;100742.25;;;22.59;100.00
18987;BME280;9627;59.236;18.142;2022-07-10T12:36:18;100735.66;;;22.50;100.00
18987;BME280;9627;59.236;18.142;2022-07-10T12:38:52;100742.19;;;22.12;100.00
18987;BME280;9627;59.236;18.142;2022-07-10T12:41:19;100743.31;;;22.22;100.00
18987;BME280;9627;59.236;18.142;2022-07-10T12:43:49;100739.44;;;20.41;100.00
18987;BME280;9627;59.236;18.142;2022-07-10T12:46:17;100736.84;;;20.68;100.00
18987;BME280;9627;59.236;18.142;2022-07-10T12:51:28;100734.00;;;21.44;100.00
18987;BME280;9627;59.236;18.142;2022-07-10T12:53:55;100730.84;;;21.52;100.00
18987;BME280;9627;59.236;18.142;2022-07-10T12:56:28;100735.81;;;22.29;100.00